CLASSIFICA

GRAN FONDO DELLE SORGENTI

(Nucera Umbra 08-05-2016)

DIVISIONI:
GF     MF     CLASSIFICA:   ASSOLUTA    M     F    
CATEGORIE:   TUTTE    |   ELITE MASTER   |   ELITE/UNDER 23   |   JUNIORES   |   M1   |   M2   |   M3   |   M4   |   M5   |   M6   |   W1   |   W2  
FILTRO:
  Atleta      Team        Pulisci       Atleti classificati GF: 232  

Cliccare sulle colonne per cambiare ordinamento
Pos. M/F Cat. P.Cat. Pett Naz Atleta Squadra Tempo Distacco in tempo ANNO T.Cent Km/h
11ELITE/UNDER 2312PIERPAOLI LORENZOVELO CLUB CICLI CINGOLANI A.S.D.02:03:05 00:00:00 1989 02:03:05,389 21.449
22ELITE/UNDER 2321ROCCHETTI LEOPOLDOVELO CLUB CICLI CINGOLANI A.S.D.02:03:05 00:00:00 1985 02:03:05,881 21.449
33ELITE/UNDER 2338RIDOLFI RICCARDOPRA SPORT FACTORY TEAM02:04:43 00:01:38 1992 02:04:43,146 21.168
44ELITE/UNDER 2344ANGELETTI MICHELEBICI ADVENTURE TEAM ASSOCIAZIONE SPORTIVA DILETTANTISTICA02:05:20 00:02:15 1990 02:05:20,247 21.064
55ELITE/UNDER 2353CICCANTI MARCOBICI ADVENTURE TEAM ASSOCIAZIONE SPORTIVA DILETTANTISTICA02:07:00 00:03:55 1992 02:07:00,027 20.787
66M11238VITALE FRANCESCOU.C. PETRIGNANO A.S.D.02:07:43 00:04:38 1984 02:07:43,309 20.671
77ELITE MASTER1285ROSSI FEDERICOVELO CLUB CICLI CINGOLANI A.S.D.02:09:45 00:06:40 1988 02:09:45,018 20.347
88M3183CIARLETTI EMANUELETEAM MONARCA TREVI A.S.D.02:09:49 00:06:44 1976 02:09:49,971 20.336
99M2187CODIGNONI LUCAA.S.D. SACAT02:09:51 00:06:46 1980 02:09:51,055 20.331
1010M22147MARTELLA ALFREDOMC2 BIKE02:10:43 00:07:38 1977 02:10:43,498 20.196
1111M12132LISPI SIMONEMC2 BIKE02:10:43 00:07:38 1982 02:10:43,616 20.196
1212ELITE MASTER2392BRUE' NICOLAASS.SPORT. DILETT. RAVEN TEAM02:10:55 00:07:50 1989 02:10:55,086 20.166
1313ELITE MASTER369CARACCIOLO LEONARDOA.C.D. SC CENTRO BICI TEAM TERNI02:11:20 00:08:15 1992 02:11:20,982 20.102
1414M51418PIERELLI SANTE LUIGIVELO CLUB CICLI CINGOLANI A.S.D.02:12:03 00:08:58 1962 02:12:03,202 19.992
1515M23144MARINELLI FABIOA.S.D. BEST BIKE02:12:21 00:09:16 1981 02:12:21,382 19.947
1616M1397DI CATALDO CHRISTIANA.S.D. CLUB SPORTIVO VILLASTRADA02:12:34 00:09:29 1983 02:12:34,088 19.915
1717M32165MOSTARDA DARIOMOUNTAN BIKE CLUB RIETI02:12:55 00:09:50 1972 02:12:55,007 19.862
1818M33124GRELLI EMANUELERACING BIKES SC PARLESCA02:12:55 00:09:50 1975 02:12:55,767 19.862
1919ELITE/UNDER 2365AGOSTINELLI SAMUELEBICI ADVENTURE TEAM ASSOCIAZIONE SPORTIVA DILETTANTISTICA02:13:10 00:10:05 1990 02:13:10,801 19.825
2020M24294MOSCA MARCOVELO CLUB CICLI CINGOLANI A.S.D.02:13:48 00:10:43 1979 02:13:48,218 19.731
2121M25281VECCIOLINI FABIOSTELLA BIKE02:14:37 00:11:32 1978 02:14:37,159 19.611
2222M41228TOMASSINI LUCADIEFFE BIKE TEAM02:15:38 00:12:33 1970 02:15:38,724 19.464
2323ELITE MASTER491CORVI LUCAA.C.D. SC CENTRO BICI TEAM TERNI02:15:54 00:12:49 1987 02:15:54,610 19.426
2424M42403MILANI MAUROBICI TIME RACING TEAM ASD02:16:51 00:13:46 1967 02:16:51,259 19.291
2525M52149MASSARUCCI ERNELIOTRIONO RACING TEAM02:16:55 00:13:50 1966 02:16:55,580 19.282
2626M34143MARIANANTONI GIOVANNIMOUNTAN BIKE CLUB RIETI02:17:07 00:14:02 1976 02:17:07,901 19.254
2727JUNIORES136ALECCI STEFANOA.S.D. PRO BIKE RIDING TEAM02:17:37 00:14:32 1998 02:17:37,771 19.184
2828M4340AGOSTINELLI LUCAU.C. PETRIGNANO A.S.D.02:19:12 00:16:07 1969 02:19:12,754 18.966
2929ELITE MASTER5298SANTOLINI CRISTIANOBICI ADVENTURE TEAM ASSOCIAZIONE SPORTIVA DILETTANTISTICA02:19:15 00:16:10 1993 02:19:15,969 18.959
3030M44128KARAI GIORGIOTRIONO RACING TEAM02:19:17 00:16:12 1968 02:19:17,510 18.954
3131M45202SANTOS ABREU NUNOTRIONO RACING TEAM02:20:07 00:17:02 1970 02:20:07,071 18.841
3232M35234VALENTE MIRKOTRIONO RACING TEAM02:20:07 00:17:02 1975 02:20:07,118 18.841
3333M53312UBALDINI MASSIMOASD MTBSANTAMARINELLACICLIMONTANINI02:20:25 00:17:20 1963 02:20:25,812 18.801
3434M26286BATTILA' MASSIMILIANOASD BIKERS RACING TEAM02:22:07 00:19:02 1980 02:22:07,318 18.576
3535M61107FIORELLI ANGELOASD A.S.C. CICLI CLEMENTI02:22:09 00:19:04 1960 02:22:09,146 18.572
3636M3658BRANCHINELLI MATTEOTRIONO RACING TEAM02:23:16 00:20:11 1973 02:23:16,954 18.427
3737M4673CARPINE MAURIZIOASD A.S.C. CICLI CLEMENTI02:23:33 00:20:28 1969 02:23:33,215 18.391
3838ELITE MASTER650BARTOLI FRANCESCO MARIAMTB CLUB SPOLETO02:23:52 00:20:47 1988 02:23:52,713 18.350
3939ELITE MASTER7106FILISTINI STEFANOTRIONO RACING TEAM02:24:42 00:21:37 1989 02:24:42,883 18.245
4040M47405AGOSTINI ULDERICOMTB CLUB SPOLETO02:24:44 00:21:39 1969 02:24:44,155 18.240
4141M54163MOSCHETTI MARIORACING BIKES SC PARLESCA02:24:54 00:21:49 1962 02:24:54,056 18.220
4242M55111GALLI LANFRANCOASD A.S.C. CICLI CLEMENTI02:25:06 00:22:01 1965 02:25:06,559 18.194
4343ELITE/UNDER 2379COLELLA ELIAS.S. LAZIO CICLISMO A.S.D.02:25:29 00:22:24 1994 02:25:29,743 18.146
4444M4899EDOARDINI MAURIZIOMOUNTAN BIKE CLUB RIETI02:25:43 00:22:38 1970 02:25:43,374 18.117
4545ELITE MASTER8288GRASSINI ALESSANDROASD FREE MINDS02:25:52 00:22:47 1987 02:25:52,410 18.099
4646M1439CALZUOLA CRISTIANA.S.D. BEST BIKE02:25:56 00:22:51 1984 02:25:56,656 18.091
4747M62419SEIGHINI ANTONIOASS.SPORT. DILETT. RAVEN TEAM02:26:04 00:22:59 1961 02:26:04,179 18.074
4848M27104FARINELLI PAOLOU.C. PETRIGNANO A.S.D.02:26:59 00:23:54 1981 02:26:59,482 17.961
4949M2875CASCIANELLI MAUROTRIONO RACING TEAM02:27:46 00:24:41 1981 02:27:46,995 17.866
5050ELITE MASTER963CALZUOLA LORENZODIEFFE BIKE TEAM02:28:15 00:25:10 1992 02:28:15,773 17.808
5151M49284BELARDINELLI RODOLFOA.S.D. GRUPPO SPORTIVO MONDOBICI02:28:27 00:25:22 1967 02:28:27,247 17.784
5252M56396CANCELLIERI MARCOVELO CLUB CICLI CINGOLANI A.S.D.02:28:32 00:25:27 1964 02:28:32,129 17.774
5353ELITE/UNDER 2387DESANTIS ALESSANDROMTB CLUB SPOLETO02:28:32 00:25:27 1997 02:28:32,978 17.774
5454M41049BAROLA ROBERTOU.C. PETRIGNANO A.S.D.02:28:34 00:25:29 1968 02:28:34,169 17.770
5555M29213SILVESTRI DANIELEMTB CLUB SPOLETO02:28:35 00:25:30 1981 02:28:35,721 17.768
5656M15194RAGNI MATTIADIEFFE BIKE TEAM02:28:37 00:25:32 1983 02:28:37,806 17.764
5757M1654BINI FABRIZIOGUSTATREVI - MTB02:29:05 00:26:00 1982 02:29:05,588 17.708
5858M5737GUERRA PAOLOA.S.D. BEST BIKE02:29:07 00:26:02 1963 02:29:07,019 17.704
5959ELITE MASTER10383COMMODI VALENTINOA.S.D. BEST BIKE02:29:13 00:26:08 1992 02:29:13,234 17.692
6060M210236VENTURINI SIMONEU.C. PETRIGNANO A.S.D.02:29:44 00:26:39 1981 02:29:44,252 17.631
6161M41148BALDELLI CARLOU.C. PETRIGNANO A.S.D.02:29:59 00:26:54 1968 02:29:59,856 17.602
6262M41243ARCALENI CARLOASD BIKELAND TEAM BIKE 200302:30:23 00:27:18 1969 02:30:23,144 17.555
6363M413239ZANCHI ROBERTORUOTA LIBERA TERNI02:30:40 00:27:35 1969 02:30:40,060 17.522
6464M3738COMMODI EDOARDOA.S.D. BEST BIKE02:31:18 00:28:13 1976 02:31:18,331 17.449
6565M38391FODARONI MAUROG.S. TESTI CICLI A.S.D.02:31:26 00:28:21 1974 02:31:26,408 17.433
6666M414311MARIUCCI LUCAASD CUCCO IN BIKE02:31:59 00:28:54 1968 02:31:59,761 17.370
6767M211386ANDREOLI DANIELEVELO CLUB CICLI CINGOLANI A.S.D.02:32:13 00:29:08 1980 02:32:13,908 17.344
6868M58166NAPOLINI FRANCOMTB CLUB SPOLETO02:32:17 00:29:12 1965 02:32:17,548 17.336
6969ELITE MASTER1181CHIAPPINI WALTERA.S.D. LARIS BIKE02:32:23 00:29:18 1987 02:32:23,468 17.325
7070M212272PETRINI STEFANOMC2 BIKE02:32:58 00:29:53 1979 02:32:58,274 17.259
7171M415122GRAZIUSO RAFFAELERACING BIKES SC PARLESCA02:33:04 00:29:59 1968 02:33:04,652 17.247
7272M416390DOMIZI ROBERTOASS.SPORT. DILETT. RAVEN TEAM02:33:12 00:30:07 1970 02:33:12,700 17.232
7373M63395DI VITA FRANCOASD MARIO PUPILLI02:33:58 00:30:53 1955 02:33:58,544 17.147
7474M417188PISTELLA ANTONIOA.S.D. LARIS BIKE02:34:17 00:31:12 1967 02:34:17,930 17.111
7575ELITE MASTER1276CASTELLANI MARCODIEFFE BIKE TEAM02:34:18 00:31:13 1993 02:34:18,961 17.110
7676M39121GRANTURCHELLI LORENZOUMBERTIDE CYCLING TEAM02:34:25 00:31:20 1976 02:34:25,080 17.097
771W11397STEFANELLI DANIELAVELO CLUB CICLI CINGOLANI A.S.D.02:34:38 00:31:33 1977 02:34:38,970 17.073
782W12401BIANCONI FRANCESCAASD BIKER IN LIBERTA' SAN BENEDETTO DEL TR.02:34:48 00:31:43 1979 02:34:48,031 17.054
7977M41892COZZARI GERMANOU.C. PETRIGNANO A.S.D.02:34:49 00:31:44 1970 02:34:49,067 17.052
8078M21380CERNICCHI WALTERDIEFFE BIKE TEAM02:34:54 00:31:49 1977 02:34:54,732 17.043
8179M419191POSATI LUCAG.S. AVIS AMELIA A.S.D.02:34:57 00:31:52 1969 02:34:57,309 17.038
8280M420407RAGNI VALTERA.S.D. ROAD BIKE CANTALICE02:34:58 00:31:53 1968 02:34:58,375 17.036
8381M310189PITOTTI FRANCESCOTRIONO RACING TEAM02:35:19 00:32:14 1976 02:35:19,923 16.998
8482M421414PAESANI SIMONEA.S.D. WAYPOINT MTB FILOTTRANO02:35:21 00:32:16 1971 02:35:21,045 16.994
8583M42267PACI EDMONDOASD A.S.C. CICLI CLEMENTI02:35:24 00:32:19 1971 02:35:24,173 16.988
8684M17207SCARPONI CLAUDIOMTB CLUB SPOLETO02:35:45 00:32:40 1982 02:35:45,832 16.950
8785M423118GIORGI FABIOA.S.D. BIKEMOTION02:35:52 00:32:47 1971 02:35:52,212 16.938
8886ELITE MASTER13388ANGELI EDOARDOGS AVIS GUALDO TADINO02:37:04 00:33:59 1988 02:37:04,033 16.808
8987M18142MARCHETTINI MATTEOTRIONO RACING TEAM02:37:09 00:34:04 1985 02:37:09,319 16.799
9088M19313SCORTECHINI FRANCESCOASD G.S. AVIS BIKE CLUB CINGOLI02:37:10 00:34:05 1985 02:37:10,333 16.798
9189M42446BACCI QUINTILIOA.S.D. TEAM MATE'02:37:21 00:34:16 1971 02:37:21,371 16.778
9290ELITE MASTER14133LOCCI ANDREAMTB CLUB SPOLETO02:37:33 00:34:28 1991 02:37:33,258 16.757
9391M214289SURIANI ALESSANDROASD FREE MINDS02:37:34 00:34:29 1981 02:37:34,246 16.755
9492M5984CIAVARELLI PAOLOA.C.D. SC CENTRO BICI TEAM TERNI02:37:42 00:34:37 1962 02:37:42,462 16.741
9593M51044ARISI DANIELEMOUNTAN BIKE CLUB RIETI02:37:56 00:34:51 1964 02:37:56,197 16.716
9694M42590CORNACCHINI MARCOMARSCIANO BIKE02:38:08 00:35:03 1970 02:38:08,786 16.695
9795M31141ALUNNO SELLERIUMBERTIDE CYCLING TEAM02:38:11 00:35:06 1976 02:38:11,589 16.690
9896M110415CIRIACI ROBERTOASD BIKERS RACING TEAM02:38:19 00:35:14 1983 02:38:19,583 16.675
9997JUNIORES2244NUCCIARELLI MARCOU.C. PETRIGNANO A.S.D.02:38:27 00:35:22 1998 02:38:27,686 16.661
10098M111216SPIGARELLI MICHELEU.C BASTIA02:38:31 00:35:26 1982 02:38:31,782 16.654
10199M42685CICIONI GIULIANOMOUNTAN BIKE CLUB RIETI02:40:13 00:37:08 1968 02:40:13,731 16.478
102100M215308PROCACCI ANTONIOASD CUCCO IN BIKE02:40:20 00:37:15 1978 02:40:20,242 16.466
103101M312404SABATINI ROBERTOBICI TIME RACING TEAM ASD02:40:49 00:37:44 1972 02:40:49,395 16.416
104102M216398VITI MATTEOTRIONO RACING TEAM02:40:49 00:37:44 1977 02:40:49,488 16.416
105103M217170NOTTOLI ALESSIOASD BIKELAND TEAM BIKE 200302:41:52 00:38:47 1980 02:41:52,309 16.310
106104M218164MOSTARDA ANGELOMOUNTAN BIKE CLUB RIETI02:41:58 00:38:53 1978 02:41:58,278 16.300
107105M219203SANTUCCI OMARDIEFFE BIKE TEAM02:41:59 00:38:54 1977 02:41:59,252 16.298
108106M64237VIOLA ERNESTOASD CT MASSA MARTANA02:42:00 00:38:55 1961 02:42:00,641 16.296
109107M313134LOCCI DARIOTRIONO RACING TEAM02:42:15 00:39:10 1974 02:42:15,187 16.271
110108M314420SANDRELLI ANDREAASSOCIAZIONE SPORTIVA DILETTANTISTICA CICLISMO TERONTOLA02:42:24 00:39:19 1974 02:42:24,972 16.256
111109M220309FUGNANESI ANTONELLOASD CUCCO IN BIKE02:42:40 00:39:35 1977 02:42:40,002 16.230
112110ELITE MASTER15154MENNOLI FRANCESCOMTB CLUB SPOLETO02:42:40 00:39:35 1987 02:42:40,926 16.230
113111M427151MENCARONI STEFANOU.C. PETRIGNANO A.S.D.02:42:41 00:39:36 1968 02:42:41,598 16.228
114112M22174CARUBINI MIRCODIEFFE BIKE TEAM02:42:47 00:39:42 1980 02:42:47,956 16.218
115113M428130LATINI LUCALEONARDI FACTORY TEAM02:43:39 00:40:34 1969 02:43:39,267 16.132
116114M112245PASTORELLI PAOLODIEFFE BIKE TEAM02:45:20 00:42:15 1984 02:45:20,999 15.968
117115M113169NOBILI GIANMARIOASD CT MASSA MARTANA02:45:23 00:42:18 1986 02:45:23,330 15.963
118116M222303RICCI FABIOSECOM FORNO PIOPPI02:45:25 00:42:20 1980 02:45:25,186 15.960
119117M114177PANNAIOLI MATTEOCICLO CLUB DERUTA02:45:27 00:42:22 1985 02:45:27,779 15.957
120118M429406CIOLI STEFANOMTB CLUB SPOLETO02:46:12 00:43:07 1968 02:46:12,669 15.885
121119ELITE MASTER16382SENSI ANDREAA.S.D. BEST BIKE02:46:14 00:43:09 1991 02:46:14,047 15.881
122120M65197ROMANI STEFANOTRIONO RACING TEAM02:47:00 00:43:55 1961 02:47:00,129 15.808
123121M223416MOSCIONI ALESSIOASD BIKELAND TEAM BIKE 200302:47:28 00:44:23 1978 02:47:28,265 15.764
124122M430113GENNARI DARIOTRIONO RACING TEAM02:47:29 00:44:24 1968 02:47:29,824 15.763
125123M315402AGOSTINELLI MIRCOASD FREE BIKERS02:47:29 00:44:24 1976 02:47:29,875 15.763
126124ELITE MASTER17214SILVIONI MATTEOU.C. PETRIGNANO A.S.D.02:47:35 00:44:30 1990 02:47:35,175 15.753
1273W13217SPURIO CHIARAA.S.D. S.C. VILLA S.ANTONIO (AP)02:47:50 00:44:45 1982 02:47:50,861 15.730
128125M115394TRONCANETTI RICCARDOMISTER BICI FABRIANO02:48:48 00:45:43 1983 02:48:48,810 15.640
129126M316241ORSINI MARCOA.S.D. TEAM BIKE PONTE02:49:15 00:46:10 1972 02:49:15,393 15.598
130127M317173PALAZZETTI ANTONIOASD BIKELAND TEAM BIKE 200302:49:31 00:46:26 1974 02:49:31,086 15.574
131128M31851BARTOLUCCI FRANCESCOTRIONO RACING TEAM02:49:39 00:46:34 1974 02:49:39,519 15.562
132129M431381GAMBELLA DAVIDASD BIKERS RACING TEAM02:49:44 00:46:39 1970 02:49:44,492 15.554
133130M319240ZANNOLI PAOLOMTB CLUB SPOLETO02:49:55 00:46:50 1974 02:49:55,910 15.537
134131M224292BALDINI MICHELEA.S.D. PECORE NERE DEL CONERO02:49:58 00:46:53 1979 02:49:58,840 15.533
135132M320423PELLICCIONI SILVIOACLI MOUNTAIN FOLIGNO02:49:58 00:46:53 1973 02:49:58,907 15.533
136133M225172PADIGLIONI FEDERICOFREEEBIKE MARSCIANO ASD02:50:01 00:46:56 1979 02:50:01,796 15.528
137134M432210SCIABORDI GIANNIMTB CLUB SPOLETO02:50:13 00:47:08 1968 02:50:13,758 15.510
138135M511135LUCCI ANDREAG.S. AVIS AMELIA A.S.D.02:52:13 00:49:08 1964 02:52:13,769 15.330
139136M226304BALDONI MATTEOSECOM FORNO PIOPPI02:52:19 00:49:14 1977 02:52:19,617 15.321
140137M227302MARIOTTI ALESSIOSECOM FORNO PIOPPI02:52:19 00:49:14 1977 02:52:19,852 15.321
141138M321412MONACELLI GIUSEPPEASD G.S. AVIS BIKE CLUB CINGOLI02:52:32 00:49:27 1975 02:52:32,361 15.301
142139M322315SPOSINI FEDERICOG.S. TESTI CICLI A.S.D.02:52:36 00:49:31 1974 02:52:36,063 15.296
143140M323131LIPPI MICHELEASD VELO CLUB RACING ASSISI BASTIA02:53:08 00:50:03 1973 02:53:08,595 15.248
1444W14215SOPRANZI LAURAA.C.D. SC CENTRO BICI TEAM TERNI02:53:12 00:50:07 1980 02:53:12,189 15.243
145141M66137MANCINI UGORACING BIKES SC PARLESCA02:53:16 00:50:11 1961 02:53:16,608 15.237
146142M324310CAPPONI ANDREAASD CUCCO IN BIKE02:53:23 00:50:18 1975 02:53:23,249 15.226
147143M6762CALZOLARI CLAUDIOU.C. PETRIGNANO A.S.D.02:53:32 00:50:27 1959 02:53:32,090 15.213
148144M325273BINI LUCAASD G.S. AVIS BIKE CLUB CINGOLI02:53:37 00:50:32 1974 02:53:37,833 15.206
149145ELITE MASTER18408MARIOTTI MARIOFREE BIKE MARSCIANO02:53:57 00:50:52 1988 02:53:57,834 15.177
150146M11642ANTIMI DIEGOTRIONO RACING TEAM02:54:10 00:51:05 1984 02:54:10,971 15.158
151147M433300BRONZO LUCAA.S.D. FOLIGNO FREERIDE02:54:16 00:51:11 1970 02:54:16,462 15.149
152148M43461CALVANI ROBERTOLA BASE - TERNI02:54:20 00:51:15 1968 02:54:20,063 15.143
153149M68290ASCANI MASSIMOA.S.D. TEAM BIKE MIRANDA02:54:21 00:51:16 1954 02:54:21,380 15.142
154150M326317PERSIGILLI ELOIA.S.D. GRUPPO CICLISTICO MATELICA02:54:24 00:51:19 1974 02:54:24,021 15.138
155151M117314COLLARINI SIMONEGS AVIS GUALDO TADINO02:55:58 00:52:53 1982 02:55:58,297 15.003
156152M435187PIMPOLARI MAUROTRIONO RACING TEAM02:55:59 00:52:54 1971 02:55:59,589 15.001
157153ELITE MASTER19115GIAMPICCOLO LUCAMTB CLUB SPOLETO02:56:49 00:53:44 1990 02:56:49,871 14.931
158154ELITE MASTER20307MARIUCCI FRANCESCOASD CUCCO IN BIKE02:56:50 00:53:45 1988 02:56:50,034 14.929
159155M327387MATARAZZI MARCOASD FREE BIKERS02:57:46 00:54:41 1975 02:57:46,643 14.851
160156JUNIORES310FENOCCHI DAVIDEOLIMPIA TEAMBIKE MARZOCCA ASD02:58:52 00:55:47 1999 02:58:52,645 14.760
161157M11898DI CATALDO DAVIDEA.S.D. CLUB SPORTIVO VILLASTRADA02:59:09 00:56:04 1985 02:59:09,707 14.736
162158M328198ROSATI ANDREADIEFFE BIKE TEAM02:59:28 00:56:23 1972 02:59:28,798 14.710
163159M228318MICHELI MAUROA.S.D. GRUPPO CICLISTICO MATELICA02:59:30 00:56:25 1980 02:59:30,324 14.708
164160ELITE MASTER2160BRUNETTI FEDERICOU.C. PETRIGNANO A.S.D.02:59:36 00:56:31 1989 02:59:36,283 14.699
165161M69282GIULIANELLI MARIOA.S.D. G. S. MONDOBICI02:59:45 00:56:40 1950 02:59:45,912 14.687
166162M329158MONCELSI GIULIOPRO TEAM EUROBICI ORVIETO03:00:17 00:57:12 1975 03:00:17,677 14.644
167163ELITE MASTER22103FALCONI ALBERTOASD OVER THE TOP03:00:26 00:57:21 1991 03:00:26,595 14.631
168164M22959BRUGNONI VALERIORACING BIKES SC PARLESCA03:00:52 00:57:47 1977 03:00:52,597 14.596
169165M330196ROGARI ANDREADIEFFE BIKE TEAM03:01:38 00:58:33 1976 03:01:38,301 14.535
1705W21206SCARABOTTINI ROMINARUOTA LIBERA TERNI03:01:49 00:58:44 1969 03:01:49,301 14.520
171166M610110FUMINI DANIELETRIONO RACING TEAM03:01:49 00:58:44 1961 03:01:49,564 14.520
172167M512400MERLI TONINOASD BIKER IN LIBERTA' SAN BENEDETTO DEL TR.03:02:00 00:58:55 1966 03:02:00,559 14.506
173168M119168NICOLUCCI FABRIZIOMTB CLUB SPOLETO03:03:08 01:00:03 1983 03:03:08,340 14.416
174169M436305ANTOGNONI SIMONEASD A.R.C.S. STROZZACAPPONI03:03:36 01:00:31 1971 03:03:36,425 14.379
175170M331139MANNI MAURIZIOTRIONO RACING TEAM03:03:43 01:00:38 1974 03:03:43,377 14.370
176171M23053BENEDETTI ALESSANDROMTB CLUB SPOLETO03:03:58 01:00:53 1979 03:03:58,094 14.350
177172M332171PACIOTTI FABIOMTB CLUB SPOLETO03:03:58 01:00:53 1975 03:03:58,427 14.350
178173M437422ANASTASI OTTAVIOCENRO REMATORI PASSIGNANO03:04:02 01:00:57 1970 03:04:02,981 14.345
179174M438200ROSATI MASSIMILIANOTRIONO RACING TEAM03:04:59 01:01:54 1971 03:04:59,113 14.272
180175M61152BATTISTELLI GIANNIA.C.D. SC CENTRO BICI TEAM TERNI03:05:24 01:02:19 1953 03:05:24,314 14.240
181176M439385MARINI ALBERTO MARIAASD ASCOLI BIKE TEAM03:05:33 01:02:28 1968 03:05:33,196 14.228
182177M513389TORSANI FABIOMTB SAN MARINO03:05:36 01:02:31 1963 03:05:36,040 14.224
183178M231301ALESSANDRINI MARCOTRIONO RACING TEAM03:05:56 01:02:51 1977 03:05:56,273 14.199
184179M440227TOMASSINI GIANLUCAU.C. PETRIGNANO A.S.D.03:06:08 01:03:03 1969 03:06:08,947 14.183
185180M232208SCATENA ANDREAASD BIKELAND TEAM BIKE 200303:06:10 01:03:05 1981 03:06:10,046 14.181
186181M233219STACCINI ANDREADIEFFE BIKE TEAM03:07:26 01:04:21 1978 03:07:26,741 14.085
187182M441399GIORDANI LUIGINOASD FIRST LOVE MATELICA03:07:47 01:04:42 1968 03:07:47,285 14.059
188183M234417LAMA MAURIZIOASP POL. GLORIE03:07:49 01:04:44 1978 03:07:49,071 14.056
189184M44288COLANTONI GIANLUCATRIONO RACING TEAM03:08:06 01:05:01 1970 03:08:06,328 14.035
190185M235100EGIZI STEFANOMY BIKE PANIF.DEIDDA MONTECASTRILLI03:08:25 01:05:20 1981 03:08:25,049 14.012
191186M514280MELA MASSIMOPASSEPARTOUT03:09:50 01:06:45 1963 03:09:50,548 13.907
192187M333221STIRATI ANDREADIEFFE BIKE TEAM03:10:11 01:07:06 1972 03:10:11,176 13.881
1936W15293PERUGINI ROMINAASD BIKELAND TEAM BIKE 200303:11:52 01:08:47 1984 03:11:52,598 13.760
194188M51578CECCHINI FABIOSECOM FORNO PIOPPI03:11:59 01:08:54 1966 03:11:59,240 13.751
195189M334162MORRONI ALESSANDROTRIONO RACING TEAM03:12:06 01:09:01 1972 03:12:06,173 13.743
196190M335148MASSARELLI LUCATRIONO RACING TEAM03:12:25 01:09:20 1972 03:12:25,385 13.720
197191M612105FEITURI ADNANASD MTBSANTAMARINELLACICLIMONTANINI03:12:28 01:09:23 1959 03:12:28,281 13.717
1987W16136MAIOTTI MARINACICLO CLUB DERUTA03:13:10 01:10:05 1988 03:13:10,015 13.667
199192M336176PANNACCI FAUSTODIEFFE BIKE TEAM03:14:22 01:11:17 1973 03:14:22,665 13.583
200193M337424TURCHI STEFANOACLI MOUNTAIN FOLIGNO03:14:50 01:11:45 1974 03:14:50,407 13.550
201194M613306BAZZUCCHI GIULIANOASD CUCCO IN BIKE03:14:50 01:11:45 1957 03:14:50,661 13.550
202195M33879CECCHINI RAFFAELEASD A.S.C. CICLI CLEMENTI03:15:56 01:12:51 1975 03:15:56,705 13.474
203196M23670CARINELLI MICHELETRIONO RACING TEAM03:19:23 01:16:18 1977 03:19:23,222 13.241
204197M120380PAOLUCCI CARLOASD BATTISTELLI EXTREME03:20:54 01:17:49 1986 03:20:54,676 13.141
205198M443379RICCI RICCARDOASD BATTISTELLI EXTREME03:20:54 01:17:49 1970 03:20:54,832 13.141
2068W22274TORNI FEDERICATRIONO RACING TEAM03:21:02 01:17:57 1973 03:21:02,286 13.132
207199M516276MACCHIONI STEFANOA.S.D IRON BIKE03:22:08 01:19:03 1965 03:22:08,327 13.061
208200M23794DE BARTOLO MAURIZIOA.S.D. GRUPPO SPORTIVO ESERCITO - CICLISMO03:23:10 01:20:05 1979 03:23:10,286 12.994
2099W23125GRIGA ZHANNAMTB CLUB SPOLETO03:24:22 01:21:17 1961 03:24:22,291 12.918
210201M238291CARDAIO FEDERICOA.S.D. TEAM BIKE MIRANDA03:27:57 01:24:52 1981 03:27:57,573 12.695
21110W2477CASTIGLIONE MAILATRIONO RACING TEAM03:27:59 01:24:54 1973 03:27:59,290 12.693
21211W1782CIAMPINI CLAUDIATRIONO RACING TEAM03:28:06 01:25:01 1989 03:28:06,123 12.686
213202M239393BALLINI MATTEOA.S.D. GRUPPO CICLISTICO MATELICA03:30:11 01:27:06 1980 03:30:11,223 12.561
214203M339209SCIABORDI GRAZIANOMTB CLUB SPOLETO03:30:15 01:27:10 1976 03:30:15,494 12.557
215204M121384STOPPINI STEFANOA.S.D. BEST BIKE03:31:26 01:28:21 1984 03:31:26,999 12.486
216205M340295LUCANTONI FRANCESCOCENRO REMATORI PASSIGNANO03:31:27 01:28:22 1975 03:31:27,086 12.485
217206M341316MARIANI LUCAA.S.D. GRUPPO CICLISTICO MATELICA03:34:30 01:31:25 1976 03:34:30,307 12.308
218207M517279MICANTI MARCOPASSEPARTOUT03:34:51 01:31:46 1965 03:34:51,516 12.288
219208M342146MARIOTTI CARLOTRIONO RACING TEAM03:40:06 01:37:01 1976 03:40:06,963 11.995
220209M444299OLIVIERI MASSIMILIANOA.S.D. FOLIGNO FREERIDE03:40:07 01:37:02 1970 03:40:07,301 11.994
221210M614296LIONETTO GIANCARLOLA BASE - TERNI03:44:08 01:41:03 1958 03:44:08,000 11.779
222211M518297CANDELORI MAUROPASS. VILLAGE03:46:53 01:43:48 1964 03:46:53,000 11.636
223212M445275LAORETI FABRIZIOTRIONO RACING TEAM03:49:47 01:46:42 1971 03:49:47,000 11.489
22412W25218SQUAZZINI GERMANATRIONO RACING TEAM03:51:49 01:48:44 1958 03:51:49,000 11.388
225213M343425CESARINI SAUROACLI MOUNTAIN FOLIGNO04:02:06 01:59:01 1972 04:02:06,000 10.905
226214M344410SPACCINI GABRIELEFREEEBIKE MARSCIANO ASD04:02:07 01:59:02 1972 04:02:07,000 10.904
227215M240411SCORTECCIA MATTEOFREE BIKE MARSCIANO04:02:07 01:59:02 1978 04:02:07,000 10.904
228216M615409BISCARINI LUIGIFREEEBIKE MARSCIANO ASD04:02:08 01:59:03 1953 04:02:08,000 10.903
229217M519277BISONNI MARIONEW BIKER ZONA ROMA04:02:08 01:59:03 1963 04:02:08,999 10.903
230218M520181PERAIO MARCOA.S.D. CLUB SPORTIVO VILLASTRADA06:00:00 03:56:55 1965 06:00:00,999 7.333
231219M44645BACCI GINOMTB CLUB SPOLETO06:00:00 03:56:55 1969 06:00:00,999 7.333
232220M12256BONCORE GIUSEPPEMTB CLUB SPOLETO06:00:00 03:56:55 1983 06:00:00,999 7.333
Righe per pagina::     TUTTE    |   30   |   50   |   100